Terminal Aerodrome Forecast
Issued by NWS Mobile, AL

Home | Current Version | Previous Version | Text Only | Print | Product List | Glossary On
Versions: 1 2 3 4 5 6 7 8 9 10 11 12 13 14 15 16 17 18
000
FTUS44 KMOB 161720
TAFMOB
TAF
KMOB 161720Z 1618/1718 15011KT P6SM SCT025 BKN040
     FM170600 14006KT 4SM BR SCT004 BKN015
     FM170800 15006KT 2SM BR OVC004
      TEMPO 1709/1712 1/2SM FG=

USA.gov is the U.S. government's official web portal to all federal, state and local government web resources and services.